M I D A S
Marine Information and Data Acquisition System
Tripno 1882 of the Zeeleeuw from 2010-05-20 07:24:50 to 2010-05-20 13:17:42
Back to CruiseResearch ActivitiesStationsMapUnderway DataData graphs

EquipmentUnitsComments
TimeDGPSUTC
LatitudeDGPSDM.mWGS84
LongitudeDGPSDM.mWGS84
SpeedMeteo Stationm/sRelative wind speed
DirectionMeteo StationdegRelative wind direction
TemperatureMeteo Stationdeg CelciusAir temperature
PressureMeteo StationPaAtmospheric pressure
HumidityMeteo Station%Relative humidity
Missing or incorrect values are displayed as -999
Metereological data collected by the RV Zeeleeuw from 2010-05-20 06:15:02 to 2010-05-20 15:18:10
Time Latitude Longitude Speed Direction Temperature Pressure Humidity
2010-05-20 06:16 51°13.659 2°55.963 -999 356 10.7 103150 33
2010-05-20 06:17 51°13.661 2°55.961 -999 21 10.7 103150 33
2010-05-20 06:18 51°13.661 2°55.961 -999 22 10.7 103150 33
2010-05-20 06:19 51°13.66 2°55.96 -999 20 10.7 103150 32
2010-05-20 06:20 51°13.661 2°55.96 -999 10 10.7 103150 33
2010-05-20 06:21 51°13.661 2°55.96 -999 19 10.7 103150 33
2010-05-20 06:22 51°13.662 2°55.96 -999 12 -999 -999 -999
2010-05-20 06:23 51°13.662 2°55.96 -999 9 10.7 103150 33
2010-05-20 06:24 51°13.662 2°55.959 -999 9 10.7 103150 33
2010-05-20 06:25 51°13.663 2°55.959 -999 2 10.8 103150 33
2010-05-20 06:26 51°13.664 2°55.959 -999 13 10.8 103150 33
2010-05-20 06:27 51°13.664 2°55.959 -999 353 10.9 103150 33
2010-05-20 06:28 51°13.664 2°55.959 -999 353 11 103150 33
2010-05-20 06:29 51°13.663 2°55.96 -999 282 11 103150 33
2010-05-20 06:30 51°13.663 2°55.96 -999 282 11.1 103150 33
2010-05-20 06:31 51°13.663 2°55.96 -999 282 11.1 103150 33
2010-05-20 06:32 51°13.663 2°55.96 -999 282 11.1 103150 33
2010-05-20 06:33 51°13.663 2°55.959 -999 282 11.2 103150 33
2010-05-20 06:34 51°13.663 2°55.959 -999 282 11.2 103150 33
2010-05-20 06:35 51°13.663 2°55.959 0.6 359 11.2 103150 33
2010-05-20 06:36 51°13.663 2°55.959 0.7 354 11.2 103150 33
2010-05-20 06:37 51°13.663 2°55.959 0.1 282 11.2 103150 33
2010-05-20 06:38 51°13.662 2°55.959 -999 282 11.2 103150 33
2010-05-20 06:39 51°13.662 2°55.959 -999 282 11.2 103150 33
2010-05-20 06:40 51°13.662 2°55.959 -999 282 11.2 103150 33
2010-05-20 06:41 51°13.661 2°55.959 -999 358 11.2 103150 34
2010-05-20 06:42 51°13.661 2°55.959 -999 355 11.2 103150 33
2010-05-20 06:43 51°13.662 2°55.958 -999 349 11.3 103150 34
2010-05-20 06:44 51°13.662 2°55.959 -999 282 11.3 103150 33
2010-05-20 06:45 51°13.662 2°55.959 -999 282 11.4 103160 34
2010-05-20 06:46 51°13.662 2°55.959 -999 351 11.5 103160 34
2010-05-20 06:47 51°13.663 2°55.959 -999 282 11.7 103160 34
2010-05-20 06:48 51°13.663 2°55.959 -999 356 11.8 103170 34
2010-05-20 06:49 51°13.663 2°55.959 -999 13 11.9 103170 34
2010-05-20 06:50 51°13.663 2°55.959 -999 5 11.9 103160 34
2010-05-20 06:51 51°13.663 2°55.959 -999 282 11.9 103160 34
2010-05-20 06:52 51°13.663 2°55.959 -999 282 11.9 103170 34
2010-05-20 06:53 51°13.663 2°55.96 -999 282 11.9 103170 34
2010-05-20 06:54 51°13.663 2°55.96 -999 282 12 103170 34
2010-05-20 06:55 51°13.663 2°55.96 -999 282 12 103170 34
2010-05-20 06:56 51°13.664 2°55.959 -999 282 12 103170 34
2010-05-20 06:57 51°13.664 2°55.959 -999 349 12 103170 34
2010-05-20 06:58 51°13.665 2°55.959 -999 282 12 103170 34
2010-05-20 06:59 51°13.665 2°55.959 -999 282 12 103170 34
2010-05-20 07:00 51°13.665 2°55.959 -999 357 12 103160 34
2010-05-20 07:01 51°13.665 2°55.96 -999 282 12 103170 34
2010-05-20 07:02 51°13.665 2°55.96 -999 349 12 103170 34
2010-05-20 07:03 51°13.665 2°55.959 -999 282 12 103170 34
2010-05-20 07:04 51°13.665 2°55.96 -999 282 12.1 103170 34
2010-05-20 07:05 51°13.663 2°55.961 -999 356 12.1 103180 34
2010-05-20 07:06 51°13.662 2°55.961 -999 356 12.1 103170 34
2010-05-20 07:07 51°13.662 2°55.961 -999 356 12.1 103180 34
2010-05-20 07:08 51°13.663 2°55.96 -999 350 12.2 103170 34
2010-05-20 07:09 51°13.663 2°55.96 -999 359 12.2 103170 34
2010-05-20 07:10 51°13.663 2°55.96 -999 353 12.3 103180 34
2010-05-20 07:11 51°13.663 2°55.96 -999 13 12.3 103170 34
2010-05-20 07:12 51°13.663 2°55.961 -999 2 12.3 103170 34
2010-05-20 07:13 51°13.662 2°55.961 -999 351 12.4 103170 34
2010-05-20 07:14 51°13.662 2°55.962 -999 353 12.5 103170 34
2010-05-20 07:15 51°13.661 2°55.962 0.1 15 12.6 103170 36
2010-05-20 07:16 51°13.661 2°55.962 0.1 354 12.6 103170 36
2010-05-20 07:17 51°13.662 2°55.962 0.1 358 12.7 103170 34
2010-05-20 07:18 51°13.662 2°55.961 0.6 9 12.7 103170 35
2010-05-20 07:19 51°13.663 2°55.961 0.9 3 12.7 103170 34
2010-05-20 07:20 51°13.662 2°55.962 0.1 9 12.7 103180 34
2010-05-20 07:21 51°13.662 2°55.963 -999 8 12.8 103180 34
2010-05-20 07:22 51°13.662 2°55.962 -999 9 12.9 103180 35
2010-05-20 07:23 51°13.663 2°55.962 -999 20 12.9 103180 35
2010-05-20 07:24 51°13.663 2°55.96 -999 16 13.1 103180 35
2010-05-20 07:25 51°13.662 2°55.962 -999 36 13.2 103180 35
2010-05-20 07:26 51°13.661 2°55.962 0.1 5 13.3 103180 35
2010-05-20 07:27 51°13.665 2°55.941 0.1 44 13.3 103180 35
2010-05-20 07:28 51°13.686 2°55.852 1.2 81 13.3 103180 34
2010-05-20 07:29 51°13.698 2°55.77 0.9 43 13.3 103180 35
2010-05-20 07:30 51°13.701 2°55.734 0.1 78 13.3 103180 34
2010-05-20 07:31 51°13.71 2°55.735 0.2 79 13.4 103180 35
2010-05-20 07:32 51°13.71 2°55.725 0.1 282 13.6 103180 35
2010-05-20 07:33 51°13.781 2°55.677 -999 282 13.7 103180 34
2010-05-20 07:34 51°13.895 2°55.593 3.4 287 13.7 103180 35
2010-05-20 07:35 51°14.025 2°55.497 1.7 286 13.7 103170 34
2010-05-20 07:36 51°14.156 2°55.391 2.9 278 13.6 103180 34
2010-05-20 07:37 51°14.296 2°55.255 5 279 13.6 103170 35
2010-05-20 07:38 51°14.465 2°55.107 5.6 282 13.6 103170 34
2010-05-20 07:39 51°14.633 2°54.914 6 280 13.5 103160 34
2010-05-20 07:40 51°14.815 2°54.702 5.3 281 13.3 103170 34
2010-05-20 07:41 51°15 2°54.491 5 283 13.1 103170 34
2010-05-20 07:42 51°15.19 2°54.288 5.6 278 13 103180 35
2010-05-20 07:43 51°15.368 2°54.062 5.3 278 12.9 103180 35
2010-05-20 07:44 51°15.554 2°53.848 5.2 278 12.8 103180 36
2010-05-20 07:45 51°15.741 2°53.643 4.9 284 12.7 103180 35
2010-05-20 07:46 51°15.937 2°53.438 5.2 284 12.6 103180 35
2010-05-20 07:47 51°16.137 2°53.259 4.7 278 12.5 103190 37
2010-05-20 07:48 51°16.347 2°53.098 4.9 285 12.4 103190 37
2010-05-20 07:49 51°16.553 2°52.932 4.9 279 12.4 103190 35
2010-05-20 07:50 51°16.767 2°52.79 4.1 279 12.3 103190 35
2010-05-20 07:51 51°16.984 2°52.657 4.3 285 12.3 103190 36
2010-05-20 07:52 51°17.204 2°52.525 4 278 12.2 103190 36
2010-05-20 07:53 51°17.433 2°52.483 3.8 286 12.1 103190 35
2010-05-20 07:54 51°17.62 2°52.697 3.8 283 12.1 103200 35
2010-05-20 07:55 51°17.785 2°52.963 4.3 278 12.1 103190 35
2010-05-20 07:56 51°17.949 2°53.228 3.9 278 12 103200 35
2010-05-20 07:57 51°18.113 2°53.493 3.4 286 12.1 103210 37
2010-05-20 07:58 51°18.274 2°53.759 4 278 12.1 103190 36
2010-05-20 07:59 51°18.438 2°54.024 3.6 283 12.1 103200 35
2010-05-20 08:00 51°18.602 2°54.291 3.4 279 12.1 103200 35
2010-05-20 08:01 51°18.747 2°54.581 4.1 285 12.1 103200 35
2010-05-20 08:02 51°18.864 2°54.898 4.1 284 12.1 103200 35
2010-05-20 08:03 51°18.972 2°55.221 3.8 284 12.1 103200 35
2010-05-20 08:04 51°19.081 2°55.542 4.1 278 12.1 103190 35
2010-05-20 08:05 51°19.182 2°55.872 4.6 279 12.1 103190 36
2010-05-20 08:06 51°19.272 2°56.208 4.6 284 12.1 103200 36
2010-05-20 08:07 51°19.364 2°56.542 4.2 279 12.1 103200 37
2010-05-20 08:08 51°19.457 2°56.874 4.1 283 12.1 103200 35
2010-05-20 08:09 51°19.55 2°57.206 1.9 277 12.2 103200 35
2010-05-20 08:10 51°19.643 2°57.537 3.8 283 12.2 103200 36
2010-05-20 08:11 51°19.736 2°57.87 4.2 284 12.2 103200 36
2010-05-20 08:12 51°19.828 2°58.202 4 283 12.3 103200 36
2010-05-20 08:13 51°19.92 2°58.533 3.6 278 12.3 103210 35
2010-05-20 08:14 51°20.009 2°58.862 3.7 284 12.4 103210 35
2010-05-20 08:15 51°20.101 2°59.189 4.1 286 12.5 103220 36
2010-05-20 08:16 51°20.192 2°59.516 3.5 279 12.5 103220 36
2010-05-20 08:17 51°20.286 2°59.842 3.5 284 12.5 103210 35
2010-05-20 08:18 51°20.378 3°0.17 3.6 281 12.6 103210 35
2010-05-20 08:19 51°20.471 3°0.498 3.2 280 12.6 103210 35
2010-05-20 08:20 51°20.515 3°0.841 3.4 281 12.6 103210 37
2010-05-20 08:21 51°20.519 3°1.192 3.5 280 12.6 103200 36
2010-05-20 08:22 51°20.537 3°1.537 3.1 283 12.5 103210 35
2010-05-20 08:23 51°20.625 3°1.859 3.3 278 12.6 103220 37
2010-05-20 08:24 51°20.702 3°2.188 3.5 284 12.8 103220 36
2010-05-20 08:25 51°20.749 3°2.53 3.7 285 12.7 103220 35
2010-05-20 08:26 51°20.785 3°2.874 3.8 279 12.7 103220 36
2010-05-20 08:27 51°20.814 3°3.22 3.4 282 12.7 103210 35
2010-05-20 08:28 51°20.843 3°3.565 3.3 284 12.7 103210 36
2010-05-20 08:29 51°20.872 3°3.902 3.2 277 12.6 103210 37
2010-05-20 08:30 51°20.901 3°4.24 3.5 279 12.6 103210 35
2010-05-20 08:31 51°20.93 3°4.589 3.6 278 12.7 103210 37
2010-05-20 08:32 51°20.96 3°4.931 3 279 12.7 103210 36
2010-05-20 08:33 51°20.986 3°5.215 0.1 281 12.6 103210 36
2010-05-20 08:34 51°20.952 3°5.326 2.1 12 12.7 103210 36
2010-05-20 08:35 51°20.904 3°5.336 3 1 12.7 103210 37
2010-05-20 08:36 51°20.865 3°5.293 3.6 346 12.7 103200 36
2010-05-20 08:37 51°20.85 3°5.195 3.9 286 12.6 103200 37
2010-05-20 08:38 51°20.905 3°5.126 3.4 283 12.6 103200 37
2010-05-20 08:39 51°20.98 3°5.154 2.6 284 12.8 103210 36
2010-05-20 08:40 51°21.035 3°5.212 1.2 282 12.9 103210 38
2010-05-20 08:41 51°21.062 3°5.275 0.1 79 13 103210 37
2010-05-20 08:42 51°21.083 3°5.353 -999 79 13 103210 36
2010-05-20 08:43 51°21.108 3°5.428 1.2 282 13.1 103220 37
2010-05-20 08:44 51°21.144 3°5.485 2.4 283 13.1 103220 37
2010-05-20 08:45 51°21.19 3°5.531 2.9 285 13.2 103220 38
2010-05-20 08:46 51°21.24 3°5.581 2.3 285 13.3 103210 38
2010-05-20 08:47 51°21.287 3°5.633 1.4 276 13.2 103210 37
2010-05-20 08:48 51°21.333 3°5.683 1.7 282 13.2 103210 38
2010-05-20 08:49 51°21.379 3°5.734 2.1 279 13.2 103210 37
2010-05-20 08:50 51°21.427 3°5.783 1.2 283 13.1 103210 37
2010-05-20 08:51 51°21.473 3°5.834 1.1 281 13.1 103210 37
2010-05-20 08:52 51°21.517 3°5.894 0.1 281 13.1 103210 35
2010-05-20 08:53 51°21.55 3°5.969 0.1 282 13.1 103200 36
2010-05-20 08:54 51°21.582 3°6.047 -999 282 13.1 103210 36
2010-05-20 08:55 51°21.616 3°6.124 -999 281 13.1 103210 36
2010-05-20 08:56 51°21.65 3°6.199 0.7 283 13.2 103210 36
2010-05-20 08:57 51°21.684 3°6.275 0.8 280 13.2 103220 36
2010-05-20 08:58 51°21.716 3°6.354 -999 281 13.2 103220 36
2010-05-20 08:59 51°21.746 3°6.435 1 277 13.3 103220 37
2010-05-20 09:00 51°21.775 3°6.518 0.3 286 13.4 103220 38
2010-05-20 09:01 51°21.8 3°6.604 -999 281 13.4 103220 36
2010-05-20 09:02 51°21.823 3°6.691 0.7 276 13.4 103220 36
2010-05-20 09:03 51°21.847 3°6.779 0.1 282 13.4 103220 35
2010-05-20 09:04 51°21.874 3°6.864 0.9 283 13.4 103220 36
2010-05-20 09:05 51°21.898 3°6.953 0.2 277 13.4 103220 36
2010-05-20 09:06 51°21.919 3°7.043 -999 281 13.4 103220 36
2010-05-20 09:07 51°21.936 3°7.135 -999 281 13.5 103220 37
2010-05-20 09:08 51°21.954 3°7.225 -999 281 13.6 103220 37
2010-05-20 09:09 51°21.972 3°7.314 -999 281 13.7 103220 37
2010-05-20 09:10 51°21.991 3°7.401 0.1 282 13.8 103220 37
2010-05-20 09:11 51°22.011 3°7.488 -999 282 13.8 103220 37
2010-05-20 09:12 51°22.029 3°7.574 -999 282 13.8 103220 37
2010-05-20 09:13 51°22.046 3°7.662 0.7 286 13.9 103220 36
2010-05-20 09:14 51°22.062 3°7.757 0.5 282 14 103220 36
2010-05-20 09:15 51°22.053 3°7.854 0.6 280 14.2 103220 37
2010-05-20 09:16 51°22.032 3°7.936 -999 10 14.2 103220 37
2010-05-20 09:17 51°21.994 3°7.969 -999 13 14.1 103220 37
2010-05-20 09:18 51°21.928 3°7.986 1.9 358 13.9 103220 36
2010-05-20 09:19 51°21.85 3°7.976 2.2 4 13.5 103220 38
2010-05-20 09:20 51°21.799 3°7.923 2.2 360 13.2 103230 36
2010-05-20 09:21 51°21.764 3°7.862 2.2 4 13.1 103220 38
2010-05-20 09:22 51°21.73 3°7.777 3.3 283 12.9 103220 36
2010-05-20 09:23 51°21.754 3°7.642 3.9 285 12.9 103220 38
2010-05-20 09:24 51°21.859 3°7.662 3.5 286 12.9 103220 37
2010-05-20 09:25 51°21.976 3°7.782 2 285 13 103220 36
2010-05-20 09:26 51°22.02 3°7.859 -999 282 13 103220 37
2010-05-20 09:27 51°22.039 3°7.863 -999 281 13.2 103220 37
2010-05-20 09:28 51°22.058 3°7.843 -999 281 13.2 103230 37
2010-05-20 09:29 51°22.074 3°7.819 -999 281 13.3 103230 37
2010-05-20 09:30 51°22.086 3°7.791 -999 281 13.3 103220 37
2010-05-20 09:31 51°22.095 3°7.763 -999 281 13.3 103220 37
2010-05-20 09:32 51°22.102 3°7.732 -999 282 13.4 103220 37
2010-05-20 09:33 51°22.107 3°7.701 -999 281 13.4 103220 37
2010-05-20 09:34 51°22.111 3°7.668 -999 282 13.4 103220 37
2010-05-20 09:35 51°22.114 3°7.634 -999 79 13.4 103220 37
2010-05-20 09:36 51°22.116 3°7.6 -999 79 13.4 103210 37
2010-05-20 09:37 51°22.118 3°7.565 -999 79 13.4 103220 37
2010-05-20 09:38 51°22.119 3°7.53 0.2 74 13.4 103220 37
2010-05-20 09:39 51°22.12 3°7.496 1.4 74 13.4 103220 38
2010-05-20 09:40 51°22.12 3°7.461 2 75 13.4 103220 36
2010-05-20 09:41 51°22.119 3°7.427 2.1 79 13.3 103220 38
2010-05-20 09:42 51°22.119 3°7.393 1.6 83 13.2 103210 37
2010-05-20 09:43 51°22.118 3°7.358 1.7 74 13.2 103220 36
2010-05-20 09:44 51°22.126 3°7.332 1.7 285 13.2 103210 38
2010-05-20 09:45 51°22.155 3°7.291 2.4 280 13.2 103210 36
2010-05-20 09:46 51°22.177 3°7.195 3.3 286 13.4 103210 38
2010-05-20 09:47 51°22.15 3°7.066 4.4 346 13.3 103210 38
2010-05-20 09:48 51°22.074 3°6.825 6.2 281 13.1 103210 38
2010-05-20 09:49 51°21.984 3°6.487 7 284 13.1 103210 38
2010-05-20 09:50 51°21.858 3°6.147 7.5 281 13.1 103200 38
2010-05-20 09:51 51°21.732 3°5.803 7.5 276 13.1 103200 37
2010-05-20 09:52 51°21.613 3°5.45 7.5 282 13 103200 37
2010-05-20 09:53 51°21.498 3°5.092 7.7 283 13 103200 37
2010-05-20 09:54 51°21.388 3°4.733 7.3 277 13 103200 37
2010-05-20 09:55 51°21.28 3°4.374 7.6 284 13.1 103200 37
2010-05-20 09:56 51°21.169 3°4.018 7.2 284 13 103210 37
2010-05-20 09:57 51°21.054 3°3.666 7.3 276 13 103200 38
2010-05-20 09:58 51°20.9 3°3.36 7.3 284 13 103200 37
2010-05-20 09:59 51°20.789 3°3.017 7.8 286 13.1 103210 38
2010-05-20 10:00 51°20.695 3°2.655 7.1 285 13.1 103210 37
2010-05-20 10:01 51°20.583 3°2.31 6.9 283 13 103210 38
2010-05-20 10:02 51°20.538 3°1.924 7.5 282 13 103210 37
2010-05-20 10:03 51°20.453 3°1.555 6.9 284 13 103210 37
2010-05-20 10:04 51°20.354 3°1.194 6.9 284 13 103200 38
2010-05-20 10:05 51°20.26 3°0.83 7.2 285 13 103210 38
2010-05-20 10:06 51°20.168 3°0.465 7.6 285 12.9 103210 37
2010-05-20 10:07 51°20.084 3°0.095 7.7 278 12.9 103210 38
2010-05-20 10:08 51°19.995 2°59.728 6.7 284 12.9 103210 36
2010-05-20 10:09 51°19.908 2°59.359 7.7 282 12.9 103210 38
2010-05-20 10:10 51°19.821 2°58.988 7.4 283 12.9 103210 36
2010-05-20 10:11 51°19.734 2°58.617 7.5 281 13 103210 37
2010-05-20 10:12 51°19.647 2°58.245 7.3 284 13 103210 36
2010-05-20 10:13 51°19.557 2°57.876 7.1 284 13 103210 36
2010-05-20 10:14 51°19.47 2°57.506 7.4 279 13 103210 38
2010-05-20 10:15 51°19.386 2°57.135 7.1 283 13 103220 36
2010-05-20 10:16 51°19.299 2°56.766 7.4 281 13 103210 37
2010-05-20 10:17 51°19.209 2°56.403 7.2 286 12.9 103220 37
2010-05-20 10:18 51°19.121 2°56.039 7.4 279 12.9 103220 36
2010-05-20 10:19 51°19.032 2°55.677 7.2 282 12.9 103210 36
2010-05-20 10:20 51°18.947 2°55.316 7 277 12.9 103220 36
2010-05-20 10:21 51°18.862 2°54.954 7.1 278 12.9 103210 37
2010-05-20 10:22 51°18.777 2°54.592 7.2 281 12.9 103220 35
2010-05-20 10:23 51°18.692 2°54.229 6.7 284 12.9 103220 37
2010-05-20 10:24 51°18.591 2°53.878 7.4 282 12.9 103220 36
2010-05-20 10:25 51°18.505 2°53.518 6.6 285 12.9 103220 36
2010-05-20 10:26 51°18.419 2°53.155 6.4 285 12.9 103220 37
2010-05-20 10:27 51°18.33 2°52.794 6.6 285 12.9 103210 36
2010-05-20 10:28 51°18.176 2°52.513 6.2 283 12.9 103220 36
2010-05-20 10:29 51°17.962 2°52.356 5.8 283 12.9 103220 36
2010-05-20 10:30 51°17.739 2°52.223 5.7 286 12.9 103220 36
2010-05-20 10:31 51°17.502 2°52.194 5.6 283 13 103220 37
2010-05-20 10:32 51°17.264 2°52.175 5.5 277 13 103220 37
2010-05-20 10:33 51°17.027 2°52.157 5.2 284 13 103220 38
2010-05-20 10:34 51°16.79 2°52.135 5.5 279 13 103220 37
2010-05-20 10:35 51°16.609 2°51.934 6.9 283 13 103210 37
2010-05-20 10:36 51°16.455 2°51.642 7.4 339 13 103220 36
2010-05-20 10:37 51°16.301 2°51.35 8 339 13 103210 37
2010-05-20 10:38 51°16.165 2°51.034 8 337 13.1 103210 36
2010-05-20 10:39 51°16.042 2°50.699 7.7 337 13 103210 35
2010-05-20 10:40 51°15.918 2°50.358 8.3 336 13 103210 36
2010-05-20 10:41 51°15.829 2°49.999 7.4 336 13.1 103210 36
2010-05-20 10:42 51°15.745 2°49.638 7.6 335 13.1 103220 36
2010-05-20 10:43 51°15.659 2°49.277 7.6 337 13 103210 36
2010-05-20 10:44 51°15.575 2°48.917 8.5 339 13 103210 37
2010-05-20 10:45 51°15.488 2°48.56 8.1 337 12.9 103210 38
2010-05-20 10:46 51°15.402 2°48.202 8.6 339 13 103220 37
2010-05-20 10:47 51°15.321 2°47.85 8.1 339 13 103210 38
2010-05-20 10:48 51°15.24 2°47.49 7.9 336 12.9 103220 38
2010-05-20 10:49 51°15.155 2°47.131 7.9 338 12.9 103220 39
2010-05-20 10:50 51°15.071 2°46.764 7.4 337 12.9 103210 40
2010-05-20 10:51 51°14.988 2°46.407 8.1 336 12.8 103210 40
2010-05-20 10:52 51°14.903 2°46.042 8.5 337 12.7 103210 41
2010-05-20 10:53 51°14.818 2°45.666 7.8 337 12.7 103220 40
2010-05-20 10:54 51°14.731 2°45.299 7.7 336 12.7 103220 40
2010-05-20 10:55 51°14.643 2°44.931 8.6 337 12.7 103210 41
2010-05-20 10:56 51°14.555 2°44.562 8.6 336 12.6 103210 41
2010-05-20 10:57 51°14.466 2°44.196 8.1 336 12.6 103210 40
2010-05-20 10:58 51°14.372 2°43.84 8.2 337 12.6 103210 41
2010-05-20 10:59 51°14.279 2°43.468 8.4 336 12.6 103210 39
2010-05-20 11:00 51°14.187 2°43.11 7.7 335 12.5 103210 40
2010-05-20 11:01 51°14.095 2°42.745 8.2 334 12.6 103210 40
2010-05-20 11:02 51°14.001 2°42.368 8.2 334 12.5 103210 39
2010-05-20 11:03 51°13.907 2°41.997 8.3 335 12.5 103200 40
2010-05-20 11:04 51°13.816 2°41.626 8 334 12.5 103200 41
2010-05-20 11:05 51°13.726 2°41.254 8 334 12.5 103200 40
2010-05-20 11:06 51°13.636 2°40.883 8.3 335 12.5 103190 39
2010-05-20 11:07 51°13.548 2°40.517 7.3 335 12.5 103200 41
2010-05-20 11:08 51°13.456 2°40.144 7.4 334 12.5 103200 39
2010-05-20 11:09 51°13.366 2°39.763 8.4 335 12.5 103200 39
2010-05-20 11:10 51°13.276 2°39.391 8.4 335 12.5 103200 39
2010-05-20 11:11 51°13.186 2°39.021 8.4 336 12.5 103200 41
2010-05-20 11:12 51°13.086 2°38.668 7.3 337 12.5 103190 39
2010-05-20 11:13 51°12.927 2°38.357 7.4 339 12.5 103200 39
2010-05-20 11:14 51°12.754 2°38.081 6.7 342 12.5 103200 39
2010-05-20 11:15 51°12.547 2°37.874 7.4 344 12.5 103200 39
2010-05-20 11:16 51°12.338 2°37.67 7.4 342 12.5 103200 40
2010-05-20 11:17 51°12.129 2°37.464 7.1 342 12.5 103200 40
2010-05-20 11:18 51°11.921 2°37.251 7.8 342 12.5 103200 40
2010-05-20 11:19 51°11.717 2°37.043 7.6 342 12.5 103200 39
2010-05-20 11:20 51°11.506 2°36.829 7.2 342 12.5 103200 40
2010-05-20 11:21 51°11.297 2°36.619 7 343 12.5 103200 40
2010-05-20 11:22 51°11.088 2°36.408 7.4 344 12.5 103200 39
2010-05-20 11:23 51°10.881 2°36.199 7.5 342 12.5 103210 39
2010-05-20 11:24 51°10.674 2°35.993 6.9 343 12.5 103200 39
2010-05-20 11:25 51°10.451 2°35.859 6 345 12.5 103200 40
2010-05-20 11:26 51°10.215 2°35.834 5.8 347 12.4 103200 39
2010-05-20 11:27 51°9.974 2°35.807 5.5 349 12.4 103200 40
2010-05-20 11:28 51°9.757 2°35.897 4 349 12.4 103200 41
2010-05-20 11:29 51°9.607 2°36.131 2.9 341 12.4 103210 39
2010-05-20 11:30 51°9.557 2°36.432 3.3 307 12.5 103210 39
2010-05-20 11:31 51°9.65 2°36.707 4.1 301 12.5 103200 42
2010-05-20 11:32 51°9.761 2°36.973 4.4 307 12.6 103210 40
2010-05-20 11:33 51°9.874 2°37.241 4.8 302 12.6 103200 40
2010-05-20 11:34 51°9.986 2°37.509 4.4 307 12.6 103200 39
2010-05-20 11:35 51°10.068 2°37.698 2.8 306 12.6 103210 39
2010-05-20 11:36 51°10.116 2°37.782 2.3 303 12.7 103200 39
2010-05-20 11:37 51°10.133 2°37.841 0.2 54 12.7 103210 40
2010-05-20 11:38 51°10.079 2°37.881 3.4 12 12.7 103200 39
2010-05-20 11:39 51°9.986 2°37.856 4.2 7 12.7 103200 41
2010-05-20 11:40 51°9.907 2°37.797 4 -999 12.6 103200 39
2010-05-20 11:41 51°9.838 2°37.731 3.7 4 12.5 103200 39
2010-05-20 11:42 51°9.775 2°37.662 3.8 356 12.5 103200 40
2010-05-20 11:43 51°9.723 2°37.567 4.6 351 12.5 103190 39
2010-05-20 11:44 51°9.686 2°37.458 4 344 12.5 103200 41
2010-05-20 11:45 51°9.657 2°37.345 4.6 341 12.5 103190 39
2010-05-20 11:46 51°9.626 2°37.232 4.5 347 12.5 103190 41
2010-05-20 11:47 51°9.592 2°37.133 4.3 351 12.5 103190 41
2010-05-20 11:48 51°9.555 2°37.045 4.2 356 12.5 103190 39
2010-05-20 11:49 51°9.515 2°36.965 4.3 357 12.5 103190 40
2010-05-20 11:50 51°9.476 2°36.881 4.4 352 12.5 103190 39
2010-05-20 11:51 51°9.44 2°36.788 4.9 351 12.5 103200 40
2010-05-20 11:52 51°9.403 2°36.685 4.8 353 12.5 103190 41
2010-05-20 11:53 51°9.365 2°36.582 4.4 353 12.5 103190 39
2010-05-20 11:54 51°9.329 2°36.484 4.9 352 12.5 103200 41
2010-05-20 11:55 51°9.295 2°36.389 3.9 353 12.5 103200 41
2010-05-20 11:56 51°9.26 2°36.291 4.8 356 12.6 103200 40
2010-05-20 11:57 51°9.224 2°36.196 4.4 355 12.5 103200 41
2010-05-20 11:58 51°9.189 2°36.103 4.9 355 12.5 103200 40
2010-05-20 11:59 51°9.152 2°36.007 4.5 355 12.5 103200 41
2010-05-20 12:00 51°9.117 2°35.911 4.8 352 12.5 103200 40
2010-05-20 12:01 51°9.085 2°35.813 4.9 351 12.5 103200 40
2010-05-20 12:02 51°9.053 2°35.716 4.5 350 12.5 103200 39
2010-05-20 12:03 51°9.02 2°35.615 4.5 349 12.5 103190 41
2010-05-20 12:04 51°8.989 2°35.519 4.9 349 12.5 103200 41
2010-05-20 12:05 51°8.957 2°35.42 5 350 12.5 103200 39
2010-05-20 12:06 51°8.927 2°35.327 4.2 349 12.5 103200 41
2010-05-20 12:07 51°8.896 2°35.238 5 352 12.5 103200 41
2010-05-20 12:08 51°8.866 2°35.148 4.6 349 12.5 103200 41
2010-05-20 12:09 51°8.836 2°35.058 4.8 349 12.5 103200 39
2010-05-20 12:10 51°8.807 2°34.971 4.7 350 12.5 103200 38
2010-05-20 12:11 51°8.778 2°34.882 4.8 351 12.5 103200 39
2010-05-20 12:12 51°8.75 2°34.796 4.7 352 12.5 103200 41
2010-05-20 12:13 51°8.719 2°34.707 3.9 345 12.5 103190 41
2010-05-20 12:14 51°8.688 2°34.614 4.7 353 12.6 103200 39
2010-05-20 12:15 51°8.653 2°34.511 4.8 347 12.5 103200 41
2010-05-20 12:16 51°8.631 2°34.398 4.5 335 12.5 103190 41
2010-05-20 12:17 51°8.624 2°34.273 5.2 335 12.6 103200 40
2010-05-20 12:18 51°8.623 2°34.146 4.9 329 12.6 103190 39
2010-05-20 12:19 51°8.633 2°34.021 4.1 326 12.6 103190 38
2010-05-20 12:20 51°8.654 2°33.908 4.8 307 12.6 103190 41
2010-05-20 12:21 51°8.694 2°33.817 4.5 302 12.7 103190 40
2010-05-20 12:22 51°8.743 2°33.759 4 301 12.7 103180 38
2010-05-20 12:23 51°8.778 2°33.725 3.7 308 12.7 103190 39
2010-05-20 12:24 51°8.799 2°33.702 3.6 302 12.7 103190 40
2010-05-20 12:25 51°8.812 2°33.678 3.7 304 12.8 103190 41
2010-05-20 12:26 51°8.826 2°33.654 3.4 308 12.8 103190 38
2010-05-20 12:27 51°8.861 2°33.694 1.9 301 12.9 103190 38
2010-05-20 12:28 51°8.875 2°33.872 1.2 300 12.9 103190 39
2010-05-20 12:29 51°8.919 2°34.047 4.1 301 12.9 103190 38
2010-05-20 12:30 51°8.973 2°34.078 4.3 309 12.9 103180 38
2010-05-20 12:31 51°9.018 2°34.055 4.8 301 12.9 103180 38
2010-05-20 12:32 51°9.1 2°34.038 4.8 303 12.9 103170 41
2010-05-20 12:33 51°9.169 2°34.045 4 304 12.9 103180 40
2010-05-20 12:34 51°9.199 2°34.052 2.1 305 12.9 103180 38
2010-05-20 12:35 51°9.213 2°34.051 2.9 304 12.9 103180 41
2010-05-20 12:36 51°9.222 2°34.04 2.7 308 12.9 103170 38
2010-05-20 12:37 51°9.236 2°34.027 3.2 303 12.9 103180 38
2010-05-20 12:38 51°9.302 2°34.14 1.8 307 12.9 103170 40
2010-05-20 12:39 51°9.281 2°34.414 1.2 331 12.9 103180 41
2010-05-20 12:40 51°9.231 2°34.714 2.1 329 12.8 103180 38
2010-05-20 12:41 51°9.182 2°35.031 2.5 333 12.8 103180 41
2010-05-20 12:42 51°9.112 2°35.483 1.9 278 12.8 103180 38
2010-05-20 12:43 51°9.059 2°35.846 2.1 301 12.7 103180 42
2010-05-20 12:44 51°9.063 2°36.145 1.3 308 12.8 103180 40
2010-05-20 12:45 51°9.051 2°36.311 -999 55 12.8 103180 40
2010-05-20 12:46 51°9.027 2°36.361 -999 55 12.9 103180 40
2010-05-20 12:47 51°9.021 2°36.378 1.6 54 12.9 103180 42
2010-05-20 12:48 51°9.019 2°36.379 2.3 306 12.9 103180 38
2010-05-20 12:49 51°9.018 2°36.371 1.6 307 12.9 103180 39
2010-05-20 12:50 51°9.017 2°36.356 2.1 308 12.9 103180 38
2010-05-20 12:51 51°9.014 2°36.337 1 306 12.9 103180 39
2010-05-20 12:52 51°9.01 2°36.314 1 303 12.9 103180 38
2010-05-20 12:53 51°9.005 2°36.29 1.5 309 12.9 103180 38
2010-05-20 12:54 51°8.998 2°36.264 1.6 281 12.8 103180 42
2010-05-20 12:55 51°8.991 2°36.237 1.6 304 12.8 103180 39
2010-05-20 12:56 51°8.984 2°36.209 2 306 12.8 103180 39
2010-05-20 12:57 51°8.976 2°36.181 2.5 303 12.8 103180 41
2010-05-20 12:58 51°8.966 2°36.152 2.1 301 12.8 103170 41
2010-05-20 12:59 51°8.957 2°36.123 1.6 306 12.7 103170 41
2010-05-20 13:00 51°8.947 2°36.093 1.6 303 12.8 103170 39
2010-05-20 13:01 51°8.937 2°36.063 2.8 308 12.8 103170 41
2010-05-20 13:02 51°8.928 2°36.034 2.5 304 12.8 103170 40
2010-05-20 13:03 51°8.918 2°36.003 1.7 15 12.8 103170 38
2010-05-20 13:04 51°8.907 2°35.973 2 310 12.8 103160 36
2010-05-20 13:05 51°8.9 2°35.946 1.7 302 12.8 103170 40
2010-05-20 13:06 51°8.909 2°35.924 2.8 310 12.8 103160 38
2010-05-20 13:07 51°8.944 2°35.883 4.4 308 12.8 103160 41
2010-05-20 13:08 51°9.081 2°35.838 5.6 303 12.8 103150 40
2010-05-20 13:09 51°9.262 2°35.79 6.1 307 12.8 103150 39
2010-05-20 13:10 51°9.45 2°35.739 6.4 283 12.8 103150 38
2010-05-20 13:11 51°9.65 2°35.694 6.4 303 12.8 103150 39
2010-05-20 13:12 51°9.855 2°35.737 6.1 301 12.7 103150 37
2010-05-20 13:13 51°10.053 2°35.831 6 303 12.7 103150 40
2010-05-20 13:14 51°10.246 2°35.947 5.4 302 12.7 103150 38
2010-05-20 13:15 51°10.436 2°36.061 5.9 307 12.7 103150 39
2010-05-20 13:16 51°10.627 2°36.176 5.4 309 12.7 103150 38
2010-05-20 13:17 51°10.817 2°36.286 5.5 308 12.7 103150 39
2010-05-20 13:18 51°11.007 2°36.393 5.2 306 12.7 103150 40
2010-05-20 13:19 51°11.196 2°36.503 5.6 283 12.6 103140 41
2010-05-20 13:20 51°11.387 2°36.612 5.7 306 12.6 103140 38
2010-05-20 13:21 51°11.577 2°36.72 5.5 303 12.6 103140 41
2010-05-20 13:22 51°11.767 2°36.829 5.5 309 12.6 103140 41
2010-05-20 13:23 51°11.958 2°36.94 5.5 306 12.6 103140 41
2010-05-20 13:24 51°12.149 2°37.05 5.7 309 12.6 103140 39
2010-05-20 13:25 51°12.34 2°37.159 5.2 310 12.6 103140 39
2010-05-20 13:26 51°12.536 2°37.249 6.1 306 12.6 103140 39
2010-05-20 13:27 51°12.742 2°37.234 6.8 307 12.6 103140 40
2010-05-20 13:28 51°12.948 2°37.219 5.9 282 12.5 103140 38
2010-05-20 13:29 51°13.154 2°37.246 5.8 309 12.6 103140 41
2010-05-20 13:30 51°13.361 2°37.281 5.8 307 12.5 103140 39
2010-05-20 13:31 51°13.568 2°37.252 6.6 310 12.5 103140 41
2010-05-20 13:32 51°13.761 2°37.074 8.1 282 12.5 103140 39
2010-05-20 13:33 51°13.928 2°36.837 7.7 321 12.5 103130 40
2010-05-20 13:34 51°14.107 2°36.632 6.9 285 12.4 103140 40
2010-05-20 13:35 51°14.289 2°36.445 7 308 12.4 103140 39
2010-05-20 13:36 51°14.481 2°36.294 6.8 307 12.4 103140 39
2010-05-20 13:37 51°14.693 2°36.248 6.3 302 12.4 103140 40
2010-05-20 13:38 51°14.904 2°36.225 6.8 308 12.4 103140 39
2010-05-20 13:39 51°15.116 2°36.201 6.6 285 12.4 103140 40
2010-05-20 13:40 51°15.328 2°36.171 6.2 306 12.3 103140 39
2010-05-20 13:41 51°15.539 2°36.14 6.8 279 12.3 103130 39
2010-05-20 13:42 51°15.75 2°36.101 7 307 12.3 103140 40
2010-05-20 13:43 51°15.96 2°36.058 7.1 307 12.3 103140 40
2010-05-20 13:44 51°16.169 2°36.052 6.2 308 12.3 103140 39
2010-05-20 13:45 51°16.377 2°36.056 6.3 308 12.3 103140 39
2010-05-20 13:46 51°16.584 2°36.056 6.3 307 12.2 103140 40
2010-05-20 13:47 51°16.79 2°36.06 5.6 308 12.2 103140 39
2010-05-20 13:48 51°16.992 2°36.066 5.9 307 12.2 103130 41
2010-05-20 13:49 51°17.195 2°36.084 5.8 283 12.2 103140 39
2010-05-20 13:50 51°17.397 2°36.105 5.9 283 12.2 103140 38
2010-05-20 13:51 51°17.598 2°36.128 5.9 278 12.2 103140 40
2010-05-20 13:52 51°17.8 2°36.151 5.8 280 12.2 103130 40
2010-05-20 13:53 51°18.004 2°36.176 5.5 285 12.2 103130 39
2010-05-20 13:54 51°18.209 2°36.2 5.9 277 12.1 103140 39
2010-05-20 13:55 51°18.417 2°36.224 5.2 278 12.2 103140 40
2010-05-20 13:56 51°18.624 2°36.246 6.4 284 12.1 103130 39
2010-05-20 13:57 51°18.831 2°36.269 5.7 279 12.1 103130 39
2010-05-20 13:58 51°19.036 2°36.291 6 284 12.1 103130 39
2010-05-20 13:59 51°19.242 2°36.311 5.8 278 12.1 103130 40
2010-05-20 14:00 51°19.448 2°36.336 6 281 12.1 103130 39
2010-05-20 14:01 51°19.653 2°36.361 5.9 279 12.1 103130 39
2010-05-20 14:02 51°19.858 2°36.384 6.1 282 12.1 103130 41
2010-05-20 14:03 51°20.058 2°36.434 6 283 12.1 103130 39
2010-05-20 14:04 51°20.253 2°36.516 6.1 280 12.1 103130 39
2010-05-20 14:05 51°20.431 2°36.652 4.5 285 12.1 103130 40
2010-05-20 14:06 51°20.507 2°36.929 2.8 285 12.1 103140 42
2010-05-20 14:07 51°20.472 2°37.25 2.6 278 12 103140 38
2010-05-20 14:08 51°20.353 2°37.536 3 281 12 103140 40
2010-05-20 14:09 51°20.231 2°37.822 3.2 284 12 103130 38
2010-05-20 14:10 51°20.112 2°38.108 3.2 284 12 103140 41
2010-05-20 14:11 51°19.994 2°38.391 3.3 280 12 103130 39
2010-05-20 14:12 51°19.854 2°38.649 3.3 278 12 103130 39
2010-05-20 14:13 51°19.702 2°38.896 3.7 282 12 103130 40
2010-05-20 14:14 51°19.555 2°39.145 3.9 278 12 103130 41
2010-05-20 14:15 51°19.406 2°39.388 3.8 347 12 103130 40
2010-05-20 14:16 51°19.26 2°39.641 3.4 344 11.9 103130 37
2010-05-20 14:17 51°19.115 2°39.897 3.8 280 12 103130 39
2010-05-20 14:18 51°18.965 2°40.155 3.6 285 12 103130 40
2010-05-20 14:19 51°18.816 2°40.415 3.7 284 12 103130 39
2010-05-20 14:20 51°18.667 2°40.672 3.8 278 12 103130 39
2010-05-20 14:21 51°18.512 2°40.921 3.8 346 12 103130 42
2010-05-20 14:22 51°18.361 2°41.174 3.3 284 11.9 103130 40
2010-05-20 14:23 51°18.214 2°41.432 3.5 278 12 103130 41
2010-05-20 14:24 51°18.067 2°41.69 3 286 12 103130 40
2010-05-20 14:25 51°17.918 2°41.944 3.4 282 12 103130 39
2010-05-20 14:26 51°17.77 2°42.2 3.7 285 12 103130 41
2010-05-20 14:27 51°17.622 2°42.459 3.7 278 12 103130 42
2010-05-20 14:28 51°17.475 2°42.719 3.5 285 12 103120 40
2010-05-20 14:29 51°17.306 2°42.937 4.9 283 12 103130 42
2010-05-20 14:30 51°17.088 2°43.048 4.7 283 12 103120 42
2010-05-20 14:31 51°16.868 2°43.158 4.9 280 12 103130 41
2010-05-20 14:32 51°16.656 2°43.296 4.1 282 12 103130 41
2010-05-20 14:33 51°16.462 2°43.489 4 281 12 103130 39
2010-05-20 14:34 51°16.279 2°43.708 3.2 347 12 103130 39
2010-05-20 14:35 51°16.12 2°43.966 3.1 277 12 103130 42
2010-05-20 14:36 51°15.966 2°44.233 3 279 12 103130 39
2010-05-20 14:37 51°15.857 2°44.544 2.1 277 12.1 103130 42
2010-05-20 14:38 51°15.799 2°44.888 3.3 277 12.2 103140 42
2010-05-20 14:39 51°15.751 2°45.234 3.8 280 12.3 103140 39
2010-05-20 14:40 51°15.706 2°45.583 3.3 276 12.3 103140 41
2010-05-20 14:41 51°15.664 2°45.932 3.8 285 12.3 103130 42
2010-05-20 14:42 51°15.625 2°46.282 3.4 283 12.4 103140 41
2010-05-20 14:43 51°15.582 2°46.628 3.1 285 12.4 103130 39
2010-05-20 14:44 51°15.541 2°46.974 2.7 278 12.4 103140 39
2010-05-20 14:45 51°15.499 2°47.319 2.9 300 12.4 103130 40
2010-05-20 14:46 51°15.47 2°47.665 3.4 280 12.5 103130 42
2010-05-20 14:47 51°15.463 2°48.013 3.4 283 12.5 103130 42
2010-05-20 14:48 51°15.454 2°48.362 3.4 286 12.5 103130 41
2010-05-20 14:49 51°15.449 2°48.712 3.4 302 12.6 103130 40
2010-05-20 14:50 51°15.443 2°49.065 3.7 307 12.6 103120 42
2010-05-20 14:51 51°15.435 2°49.418 4 301 12.6 103130 41
2010-05-20 14:52 51°15.431 2°49.77 3.9 324 12.6 103130 42
2010-05-20 14:53 51°15.423 2°50.121 4.1 307 12.6 103120 39
2010-05-20 14:54 51°15.416 2°50.472 3.6 324 12.7 103120 39
2010-05-20 14:55 51°15.41 2°50.821 3.7 307 12.7 103120 41
2010-05-20 14:56 51°15.405 2°51.173 3.3 307 12.7 103120 39
2010-05-20 14:57 51°15.399 2°51.525 2.7 325 12.7 103120 42
2010-05-20 14:58 51°15.322 2°51.857 2.8 327 12.8 103120 41
2010-05-20 14:59 51°15.267 2°52.193 2.6 304 12.8 103110 39
2010-05-20 15:00 51°15.229 2°52.541 3.2 302 12.8 103110 42
2010-05-20 15:01 51°15.193 2°52.891 3 307 12.9 103110 43
2010-05-20 15:02 51°15.166 2°53.246 3.9 303 12.9 103110 41
2010-05-20 15:03 51°15.136 2°53.602 3.3 303 12.9 103110 41
2010-05-20 15:04 51°15.091 2°53.954 3.1 306 12.9 103110 38
2010-05-20 15:05 51°15.025 2°54.295 3.5 301 12.9 103110 41
2010-05-20 15:06 51°14.88 2°54.571 2.9 332 13 103120 42
2010-05-20 15:07 51°14.704 2°54.798 2.4 339 13 103120 39
2010-05-20 15:08 51°14.522 2°55.005 2.7 339 12.9 103110 39
2010-05-20 15:09 51°14.333 2°55.188 3.1 345 12.9 103110 39
2010-05-20 15:10 51°14.176 2°55.375 2.9 346 12.8 103110 42
2010-05-20 15:11 51°14.053 2°55.477 0.9 14 12.9 103110 41
2010-05-20 15:12 51°13.946 2°55.551 -999 13 12.9 103100 40
2010-05-20 15:13 51°13.846 2°55.615 0.4 57 13 103100 42
2010-05-20 15:14 51°13.763 2°55.699 0.8 60 13.1 103100 41
2010-05-20 15:15 51°13.71 2°55.81 0.1 55 13.2 103100 39
2010-05-20 15:16 51°13.672 2°55.913 2 51 13.2 103090 41
2010-05-20 15:17 51°13.661 2°55.958 2.9 51 13.2 103100 43